Nearby METAR Reports

 

KSYN - Stanton, Minnesota, USA
Distance from station: NW 20mi, 33km
Updated: Thu, 30-Jun-2022 10:35pm CDT
Clear
Clear
 Wind from calm
Wind: Calm
Temperature: 70°F , 21°C
Dew Point: 61°F , 16°C
Humidity: 73%
Barometer: 29.91 inHg , 1012.9 hPa
Clouds: Clear
Visibility: 10 miles , 16 km
2022/07/01 03:35 KSYN 010335Z AUTO 00000KT 10SM CLR 21/16 A2991 RMK AO2 T02100155
KTOB - Dodge Center, Minnesota, USA
Distance from station: SSW 21mi, 34km
Updated: Thu, 30-Jun-2022 10:35pm CDT

 Wind from NW
Wind: NW 8 mph , 13 km/h
Temperature: 73°F , 23°C
Dew Point: 57°F , 14°C
Humidity: 57%
Barometer: 29.94 inHg , 1013.9 hPa
Visibility: 10 miles , 16 km
2022/07/01 03:35 KTOB 010335Z AUTO 31007KT 10SM 23/14 A2994 RMK AO2
K9MN - St Mary Hospital, Minnesota, USA
Distance from station: SSE 22mi, 35km
Updated: Thu, 30-Jun-2022 10:19pm CDT
Partly cloudy
Partly cloudy
 Wind from WNW
Wind: WNW 9 mph , 15 km/h
Temperature: 75°F , 24°C
Dew Point: 63°F , 17°C
Humidity: 65%
Barometer: 29.92 inHg , 1013.2 hPa
Clouds: Partly cloudy
Visibility: 10 miles , 16 km
Cloud details: Partly cloudy 12000 ft
2022/07/01 03:19 K9MN 010319Z AUTO 30008KT 10SM SCT120 24/17 A2992 RMK AO1
 
KRGK - Red Wing, Minnesota, USA
Distance from station: NNE 22mi, 35km
Updated: Thu, 30-Jun-2022 10:35pm CDT
Clear
Clear
 Wind from NNW
Wind: NNW 3 mph , 6 km/h
Temperature: 75°F , 24°C
Dew Point: 54°F , 12°C
Humidity: 47%
Barometer: 29.89 inHg , 1012.2 hPa
Clouds: Clear
Visibility: 10 miles , 16 km
2022/07/01 03:35 KRGK 010335Z AUTO 33003KT 10SM CLR 24/12 A2989 RMK AO2
KRST - Rochester, Minnesota, USA
Distance from station: SSE 29mi, 47km
Updated: Thu, 30-Jun-2022 9:54pm CDT
Clear
Clear
 Wind from W
Wind: W 6 mph , 9 km/h
Temperature: 73°F , 23°C
Dew Point: 66°F , 19°C
Humidity: 78%
Barometer: 29.90 inHg , 1012.5 hPa
Clouds: Clear
Visibility: 10 miles , 16 km
2022/07/01 02:54 KRST 010254Z 28005KT 10SM CLR 23/19 A2990 RMK AO2 SLP119 T02280189 53013
KOWA - Owatonna, Minnesota, USA
Distance from station: WSW 31mi, 50km
Updated: Thu, 30-Jun-2022 10:33pm CDT

 Wind from WNW
Wind: WNW 5 mph , 7 km/h
Temperature: 70°F , 21°C
Dew Point: 57°F , 14°C
Humidity: 64%
Barometer: 29.94 inHg , 1013.9 hPa
Visibility: 10 miles , 16 km
2022/07/01 03:33 KOWA 010333Z AUTO 30004KT 10SM 21/14 A2994 RMK AO2
 
KFBL - Faribault Muni, Minnesota, USA
Distance from station: W 32mi, 51km
Updated: Thu, 30-Jun-2022 10:35pm CDT
Clear
Clear
 Wind from calm
Wind: Calm
Temperature: 72°F , 22°C
Dew Point: 55°F , 13°C
Humidity: 57%
Barometer: 29.93 inHg , 1013.5 hPa
Clouds: Clear
Visibility: 10 miles , 16 km
2022/07/01 03:35 KFBL 010335Z AUTO 00000KT 10SM CLR 22/13 A2993 RMK AO2
KSGS - South St Paul, Minnesota, USA
Distance from station: NNW 43mi, 69km
Updated: Thu, 30-Jun-2022 10:35pm CDT
Clear
Clear
 Wind from NNW
Wind: NNW 10 mph , 17 km/h
Temperature: 77°F , 25°C
Dew Point: 50°F , 10°C
Humidity: 39%
Barometer: 29.91 inHg , 1012.9 hPa
Clouds: Clear
Visibility: 10 miles , 16 km
2022/07/01 03:35 KSGS 010335Z AUTO 33009KT 10SM CLR 25/10 A2991 RMK AO2 T02520102
KAUM - Austin Muni, Minnesota, USA
Distance from station: SSW 46mi, 73km
Updated: Thu, 30-Jun-2022 10:35pm CDT
Clear
Clear
 Wind from NNW
Wind: NNW 3 mph , 6 km/h
Temperature: 75°F , 24°C
Dew Point: 66°F , 19°C
Humidity: 74%
Barometer: 29.94 inHg , 1013.9 hPa
Clouds: Clear
Visibility: 10 miles , 16 km
2022/07/01 03:35 KAUM 010335Z AUTO 33003KT 10SM CLR 24/19 A2994 RMK AO2
 
KACQ - Waseca, Minnesota, USA
Distance from station: WSW 46mi, 75km
Updated: Thu, 30-Jun-2022 10:35pm CDT
Clear
Clear
 Wind from NNW
Wind: NNW 6 mph , 9 km/h
Temperature: 68°F , 20°C
Dew Point: 55°F , 13°C
Humidity: 64%
Barometer: 29.96 inHg , 1014.6 hPa
Clouds: Clear
Visibility: 10 miles , 16 km
2022/07/01 03:35 KACQ 010335Z AUTO 33005KT 10SM CLR 20/13 A2996 RMK AO2
KSTP - St. Paul, Minnesota, USA
Distance from station: NNW 47mi, 76km
Updated: Thu, 30-Jun-2022 9:53pm CDT
Clear
Clear
 Wind from NW
Wind: NW 14 mph , 22 km/h
Temperature: 79°F , 26°C
Dew Point: 52°F , 11°C
Humidity: 39%
Barometer: 29.90 inHg , 1012.5 hPa
Clouds: Clear
Visibility: 10 miles , 16 km
2022/07/01 02:53 KSTP 010253Z 32012KT 10SM CLR 26/11 A2990 RMK AO2 SLP118 T02560111 53023
KMSP - Minneapolis, Minnesota, USA
Distance from station: NW 49mi, 78km
Updated: Thu, 30-Jun-2022 9:53pm CDT
Few Clouds
Few Clouds
 Wind from NNW
Wind: NNW 13 mph , 20 km/h
Temperature: 79°F , 26°C
Dew Point: 50°F , 10°C
Humidity: 37%
Barometer: 29.90 inHg , 1012.5 hPa
Clouds: Few Clouds
Visibility: 10 miles , 16 km
Cloud details: Few Clouds 11000 ft
2022/07/01 02:53 KMSP 010253Z 33011KT 10SM FEW110 26/10 A2990 RMK AO2 SLP120 T02560100 53021